createdAt,value
2022-10-29T00:02:14.461Z,22.93
2022-10-29T00:04:40.807Z,23.17
2022-10-29T00:07:07.146Z,16.50
2022-10-29T00:09:33.593Z,22.17
2022-10-29T00:11:59.943Z,16.67
2022-10-29T00:14:26.316Z,17.93
2022-10-29T00:16:52.697Z,21.87
2022-10-29T00:19:19.028Z,19.40
2022-10-29T00:21:45.413Z,21.63
2022-10-29T00:24:11.835Z,19.70
2022-10-29T00:26:38.197Z,22.77
2022-10-29T00:29:04.588Z,19.17
2022-10-29T00:31:31.438Z,17.93
2022-10-29T00:33:57.831Z,22.50
2022-10-29T00:36:26.297Z,19.90
2022-10-29T00:38:52.665Z,23.97
2022-10-29T00:41:20.703Z,22.77
2022-10-29T00:43:48.578Z,26.40
2022-10-29T00:46:24.672Z,21.30
2022-10-29T00:48:52.099Z,20.43
2022-10-29T00:51:19.041Z,18.10
2022-10-29T00:53:47.264Z,18.37
2022-10-29T00:56:13.974Z,26.33
2022-10-29T00:58:40.709Z,23.13
2022-10-29T01:01:07.235Z,23.30
2022-10-29T01:03:33.572Z,19.53
2022-10-29T01:06:01.022Z,23.37
2022-10-29T01:08:27.464Z,19.10
2022-10-29T01:11:11.988Z,26.43
2022-10-29T01:13:41.064Z,23.67
2022-10-29T01:16:19.431Z,25.27
2022-10-29T01:18:54.450Z,19.03
2022-10-29T01:21:37.611Z,20.73
2022-10-29T01:24:22.742Z,25.70
2022-10-29T01:26:55.163Z,22.03
2022-10-29T01:29:40.530Z,28.07
2022-10-29T01:32:36.268Z,23.17
2022-10-29T01:35:02.620Z,21.43
2022-10-29T01:37:47.869Z,24.50
2022-10-29T01:40:21.812Z,24.17
2022-10-29T01:42:54.411Z,21.03
2022-10-29T01:45:29.783Z,23.17
2022-10-29T01:48:10.457Z,18.90
2022-10-29T01:50:38.036Z,23.40
2022-10-29T01:53:04.889Z,20.67
2022-10-29T01:55:35.229Z,31.43
2022-10-29T01:58:05.444Z,34.80
2022-10-29T02:00:48.266Z,24.27
2022-10-29T02:03:27.113Z,40.17
2022-10-29T02:06:16.568Z,26.93
2022-10-29T02:08:51.636Z,29.40
2022-10-29T02:11:21.619Z,27.10
2022-10-29T02:13:55.883Z,24.60
2022-10-29T02:16:22.996Z,29.43
2022-10-29T02:18:49.685Z,24.80
2022-10-29T02:21:16.771Z,28.80
2022-10-29T02:23:43.285Z,24.60
2022-10-29T02:26:09.950Z,25.73
2022-10-29T02:28:36.349Z,32.50
2022-10-29T02:31:02.909Z,16.97
2022-10-29T02:33:29.387Z,23.83
2022-10-29T02:35:55.732Z,45.17
2022-10-29T02:38:22.080Z,40.10
2022-10-29T02:40:48.405Z,29.03
2022-10-29T02:43:14.834Z,18.00
2022-10-29T02:45:41.313Z,29.07
2022-10-29T02:48:07.636Z,22.13
2022-10-29T02:50:33.984Z,23.87
2022-10-29T02:53:00.341Z,33.57
2022-10-29T02:55:26.654Z,27.10
2022-10-29T02:57:53.236Z,27.80
2022-10-29T03:00:19.825Z,27.73
2022-10-29T03:02:46.248Z,28.90
2022-10-29T03:05:12.607Z,23.33
2022-10-29T03:07:39.010Z,23.63
2022-10-29T03:10:06.222Z,28.27
2022-10-29T03:12:32.649Z,24.57
2022-10-29T03:14:59.001Z,22.40
2022-10-29T03:17:25.607Z,37.27
2022-10-29T03:19:51.932Z,25.13
2022-10-29T03:22:18.280Z,25.53
2022-10-29T03:24:44.620Z,27.90
2022-10-29T03:27:11.124Z,32.90
2022-10-29T03:29:37.477Z,23.77
2022-10-29T03:32:03.910Z,22.03
2022-10-29T03:34:30.560Z,27.50
2022-10-29T03:36:56.933Z,26.73
2022-10-29T03:39:23.274Z,28.97
2022-10-29T03:41:49.632Z,34.67
2022-10-29T03:44:16.031Z,25.50
2022-10-29T03:46:42.434Z,24.23
2022-10-29T03:49:08.774Z,25.20
2022-10-29T03:51:35.617Z,26.03
2022-10-29T03:54:02.145Z,33.03
2022-10-29T03:56:28.490Z,29.20
2022-10-29T03:58:54.930Z,29.90
2022-10-29T04:01:21.614Z,27.80
2022-10-29T04:03:48.055Z,26.17
2022-10-29T04:06:15.362Z,27.90
2022-10-29T04:08:42.059Z,37.97
2022-10-29T04:11:12.033Z,42.83
2022-10-29T04:13:38.385Z,30.07
2022-10-29T04:16:04.960Z,25.13
2022-10-29T04:18:31.402Z,25.10
2022-10-29T04:29:28.291Z,30.53
2022-10-29T04:31:54.631Z,31.50
2022-10-29T04:34:20.966Z,21.30
2022-10-29T04:36:47.400Z,23.00
2022-10-29T04:39:13.785Z,25.33
2022-10-29T04:41:40.137Z,23.23
2022-10-29T04:44:06.505Z,24.80
2022-10-29T04:46:32.854Z,22.03
2022-10-29T04:48:59.325Z,27.60
2022-10-29T04:51:26.412Z,24.73
2022-10-29T04:53:52.775Z,25.43
2022-10-29T04:56:19.190Z,31.63
2022-10-29T04:58:45.512Z,26.33
2022-10-29T05:01:12.087Z,27.57
2022-10-29T05:03:38.572Z,28.23
2022-10-29T05:06:05.594Z,29.83
2022-10-29T05:08:32.413Z,29.83
2022-10-29T05:11:01.243Z,21.50
2022-10-29T05:13:27.555Z,22.07
2022-10-29T05:15:53.909Z,22.10
2022-10-29T05:18:20.365Z,35.60
2022-10-29T05:20:46.719Z,23.77
2022-10-29T05:23:13.098Z,28.03
2022-10-29T05:25:40.465Z,20.07
2022-10-29T05:28:11.794Z,22.30
2022-10-29T05:30:38.446Z,27.10
2022-10-29T05:33:08.254Z,25.80
2022-10-29T05:35:35.098Z,23.33
2022-10-29T05:38:01.972Z,24.33
2022-10-29T05:40:28.673Z,27.13
2022-10-29T05:42:55.052Z,18.10
2022-10-29T05:45:21.627Z,31.13
2022-10-29T05:47:48.115Z,30.00
2022-10-29T05:50:14.518Z,23.80
2022-10-29T05:52:40.885Z,30.60
2022-10-29T05:55:07.694Z,30.40
2022-10-29T05:57:34.031Z,25.03
2022-10-29T06:00:00.410Z,31.13
2022-10-29T06:02:26.955Z,30.80
2022-10-29T06:04:53.338Z,28.37
2022-10-29T06:07:19.716Z,36.10
2022-10-29T06:09:46.057Z,24.90
2022-10-29T06:12:12.393Z,23.13
2022-10-29T06:14:38.736Z,29.63
2022-10-29T06:17:05.088Z,23.67
2022-10-29T06:19:31.549Z,33.23
2022-10-29T06:22:00.416Z,25.50
2022-10-29T06:24:27.190Z,21.77
2022-10-29T06:26:54.155Z,35.97
2022-10-29T06:29:20.532Z,27.73
2022-10-29T06:31:46.971Z,27.83
2022-10-29T06:34:14.724Z,28.70
2022-10-29T06:36:41.163Z,27.37
2022-10-29T06:39:07.532Z,27.67
2022-10-29T06:41:33.872Z,28.50
2022-10-29T06:44:00.277Z,26.53
2022-10-29T06:46:26.625Z,25.10
2022-10-29T06:48:52.981Z,22.63
2022-10-29T06:51:19.495Z,22.27
2022-10-29T06:53:45.903Z,19.90
2022-10-29T06:56:12.244Z,28.57
2022-10-29T06:58:38.585Z,23.03
2022-10-29T07:01:05.250Z,25.43
2022-10-29T07:03:31.656Z,20.60
2022-10-29T07:05:58.997Z,22.50
2022-10-29T07:08:25.764Z,26.57
2022-10-29T07:10:52.718Z,29.03
2022-10-29T07:13:19.254Z,25.03
2022-10-29T07:15:45.636Z,28.67
2022-10-29T07:18:12.125Z,32.27
2022-10-29T07:20:43.023Z,31.03
2022-10-29T07:23:09.978Z,30.67
2022-10-29T07:25:37.181Z,27.50
2022-10-29T07:28:04.852Z,22.80
2022-10-29T07:30:31.336Z,33.17
2022-10-29T07:32:57.660Z,33.17
2022-10-29T07:35:24.075Z,26.77
2022-10-29T07:37:50.414Z,31.90
2022-10-29T07:40:17.016Z,35.33
2022-10-29T07:42:43.385Z,32.13
2022-10-29T07:45:10.025Z,31.87
2022-10-29T07:47:36.743Z,32.83
2022-10-29T07:50:03.669Z,41.93
2022-10-29T07:52:30.032Z,41.93
2022-10-29T07:54:56.444Z,46.87
2022-10-29T07:57:22.800Z,44.43
2022-10-29T07:59:50.295Z,40.03
2022-10-29T08:02:16.779Z,39.27
2022-10-29T08:04:43.176Z,44.63
2022-10-29T08:07:09.515Z,46.73
2022-10-29T08:09:35.868Z,34.63
2022-10-29T08:12:02.196Z,46.27
2022-10-29T08:14:28.555Z,41.17
2022-10-29T08:16:54.928Z,36.63
2022-10-29T08:19:21.597Z,34.43
2022-10-29T08:21:47.963Z,40.10
2022-10-29T08:24:14.388Z,32.33
2022-10-29T08:26:40.763Z,35.73
2022-10-29T08:29:07.153Z,29.30
2022-10-29T08:31:33.691Z,28.17
2022-10-29T08:34:00.121Z,35.37
2022-10-29T08:36:26.471Z,36.23
2022-10-29T08:38:52.870Z,41.83
2022-10-29T08:41:19.204Z,32.90
2022-10-29T08:46:50.510Z,31.10
2022-10-29T08:49:21.674Z,40.83
2022-10-29T08:51:51.955Z,33.50
2022-10-29T08:54:31.180Z,45.07
2022-10-29T08:56:59.255Z,43.47
2022-10-29T08:59:28.185Z,33.37
2022-10-29T09:01:54.585Z,37.33
2022-10-29T09:04:31.597Z,35.17
2022-10-29T09:07:08.711Z,35.67
2022-10-29T09:09:38.865Z,34.77
2022-10-29T09:12:11.165Z,37.40
2022-10-29T09:14:40.689Z,34.97
2022-10-29T09:17:15.782Z,46.60
2022-10-29T09:20:05.293Z,45.47
2022-10-29T09:22:47.546Z,44.63
2022-10-29T09:25:29.799Z,35.80
2022-10-29T09:28:02.720Z,40.30
2022-10-29T09:30:30.773Z,45.37
2022-10-29T09:33:04.986Z,48.43
2022-10-29T09:35:34.401Z,42.03
2022-10-29T09:38:02.334Z,30.83
2022-10-29T09:40:33.165Z,37.70
2022-10-29T09:43:01.476Z,40.43
2022-10-29T09:45:35.630Z,31.67
2022-10-29T09:48:06.393Z,36.70
2022-10-29T09:50:41.650Z,33.47
2022-10-29T09:53:08.630Z,36.50
2022-10-29T09:55:37.792Z,36.63
2022-10-29T09:58:05.536Z,41.13
2022-10-29T10:00:32.484Z,37.40
2022-10-29T10:03:10.843Z,42.13
2022-10-29T10:05:55.584Z,42.20
2022-10-29T10:08:21.953Z,39.57
2022-10-29T10:11:00.564Z,40.73
2022-10-29T10:13:31.287Z,37.33
2022-10-29T10:16:01.892Z,38.67
2022-10-29T10:18:39.684Z,37.93
2022-10-29T10:21:10.488Z,34.83
2022-10-29T10:23:47.397Z,38.30
2022-10-29T10:26:32.254Z,32.13
2022-10-29T10:29:12.358Z,43.23
2022-10-29T10:31:39.273Z,35.43
2022-10-29T10:34:13.065Z,32.03
2022-10-29T10:36:41.813Z,78.33
2022-10-29T10:39:16.013Z,40.17
2022-10-29T10:41:42.680Z,38.17
2022-10-29T10:44:12.617Z,35.97
2022-10-29T10:46:40.659Z,34.57
2022-10-29T10:49:12.796Z,36.97
2022-10-29T10:51:42.691Z,35.43
2022-10-29T10:54:27.922Z,30.20
2022-10-29T10:57:03.189Z,32.93
2022-10-29T10:59:41.864Z,28.70
2022-10-29T11:02:15.159Z,34.90
2022-10-29T11:04:43.361Z,30.07
2022-10-29T11:07:12.508Z,30.70
2022-10-29T11:09:46.738Z,28.00
2022-10-29T11:12:24.360Z,30.60
2022-10-29T11:14:53.910Z,28.57
2022-10-29T11:17:20.406Z,27.10
2022-10-29T11:19:49.656Z,31.63
2022-10-29T11:22:18.830Z,26.13
2022-10-29T11:24:50.483Z,36.97
2022-10-29T11:27:35.144Z,28.20
2022-10-29T11:30:03.909Z,39.80
2022-10-29T11:32:34.857Z,25.07
2022-10-29T11:35:04.391Z,23.53
2022-10-29T11:37:49.637Z,25.30
2022-10-29T11:40:37.830Z,30.57
2022-10-29T11:43:09.725Z,22.70
2022-10-29T11:45:49.642Z,27.17
2022-10-29T11:50:54.849Z,29.17
2022-10-29T11:53:41.504Z,29.33
2022-10-29T11:56:22.735Z,32.73
2022-10-29T11:58:58.325Z,25.60
2022-10-29T12:01:27.473Z,25.27
2022-10-29T12:04:01.099Z,25.40
2022-10-29T12:06:34.977Z,28.33
2022-10-29T12:09:20.187Z,31.53
2022-10-29T12:11:54.060Z,34.83
2022-10-29T12:14:20.398Z,22.17
2022-10-29T12:16:58.435Z,25.53
2022-10-29T12:19:30.929Z,23.10
2022-10-29T12:22:04.094Z,29.07
2022-10-29T12:24:43.117Z,25.63
2022-10-29T12:27:14.554Z,26.00
2022-10-29T12:29:47.868Z,26.27
2022-10-29T12:32:18.577Z,30.33
2022-10-29T12:34:48.074Z,25.23
2022-10-29T12:37:33.213Z,26.73
2022-10-29T12:40:02.696Z,25.50
2022-10-29T12:42:32.063Z,21.07
2022-10-29T12:45:20.131Z,23.20
2022-10-29T12:47:52.480Z,22.47
2022-10-29T12:50:54.521Z,24.30
2022-10-29T12:53:39.326Z,25.10
2022-10-29T12:56:07.057Z,24.07
2022-10-29T12:58:42.481Z,26.80
2022-10-29T13:02:09.835Z,22.17
2022-10-29T13:04:25.824Z,28.10
2022-10-29T13:07:05.670Z,24.17
2022-10-29T13:09:36.109Z,23.63
2022-10-29T13:12:06.507Z,35.43
2022-10-29T13:14:38.960Z,24.90
2022-10-29T13:17:17.685Z,25.97
2022-10-29T13:19:47.258Z,17.20
2022-10-29T13:22:16.486Z,20.80
2022-10-29T13:24:43.095Z,24.77
2022-10-29T13:27:21.670Z,21.80
2022-10-29T13:29:48.056Z,19.03
2022-10-29T13:32:30.572Z,20.90
2022-10-29T13:34:58.328Z,23.37
2022-10-29T13:37:54.242Z,25.83
2022-10-29T13:40:23.736Z,19.47
2022-10-29T13:42:57.288Z,21.67
2022-10-29T13:45:24.038Z,22.00
2022-10-29T13:47:50.406Z,31.07
2022-10-29T13:50:20.509Z,35.77
2022-10-29T13:52:50.651Z,34.73
2022-10-29T13:55:17.505Z,23.13
2022-10-29T13:57:59.482Z,18.13
2022-10-29T14:00:26.371Z,19.50
2022-10-29T14:02:56.113Z,21.93
2022-10-29T14:05:25.635Z,21.87
2022-10-29T14:08:03.774Z,21.27
2022-10-29T14:10:43.808Z,19.23
2022-10-29T14:13:19.136Z,24.67
2022-10-29T14:16:09.245Z,25.57
2022-10-29T14:18:37.020Z,23.00
2022-10-29T14:21:04.947Z,24.70
2022-10-29T14:23:32.181Z,20.90
2022-10-29T14:26:03.943Z,23.07
2022-10-29T14:28:31.497Z,18.20
2022-10-29T14:31:11.853Z,19.10
2022-10-29T14:33:39.317Z,18.40
2022-10-29T14:36:05.758Z,24.10
2022-10-29T14:38:51.931Z,28.37
2022-10-29T14:41:19.034Z,21.57
2022-10-29T14:43:50.433Z,21.83
2022-10-29T14:46:16.768Z,27.03
2022-10-29T14:48:54.613Z,25.33
2022-10-29T14:51:21.933Z,25.10
2022-10-29T14:53:52.981Z,19.33
2022-10-29T14:56:20.055Z,21.33
2022-10-29T14:58:47.081Z,22.87
2022-10-29T15:01:15.621Z,19.30
2022-10-29T15:03:42.221Z,27.13
2022-10-29T15:06:16.400Z,24.43
2022-10-29T15:08:43.801Z,25.70
2022-10-29T15:11:28.994Z,22.50
2022-10-29T15:13:55.344Z,20.33
2022-10-29T15:16:21.713Z,19.43
2022-10-29T15:18:49.485Z,19.23
2022-10-29T15:21:32.812Z,19.00
2022-10-29T15:24:08.056Z,25.73
2022-10-29T15:26:35.415Z,18.73
2022-10-29T15:29:03.040Z,21.40
2022-10-29T15:31:33.106Z,24.53
2022-10-29T15:34:10.505Z,27.87
2022-10-29T15:36:53.067Z,21.70
2022-10-29T15:39:26.697Z,20.90
2022-10-29T15:41:54.821Z,25.97
2022-10-29T15:44:33.180Z,23.93
2022-10-29T15:47:00.691Z,19.13
2022-10-29T15:49:31.364Z,19.60
2022-10-29T15:52:00.583Z,23.80
2022-10-29T15:54:27.579Z,26.03
2022-10-29T15:56:53.922Z,21.87
2022-10-29T15:59:22.970Z,23.80
2022-10-29T16:01:49.518Z,26.60
2022-10-29T16:04:16.008Z,25.27
2022-10-29T16:06:42.382Z,20.33
2022-10-29T16:09:15.548Z,22.30
2022-10-29T16:11:41.923Z,20.37
2022-10-29T16:14:09.163Z,22.60
2022-10-29T16:16:35.576Z,19.23
2022-10-29T16:19:01.948Z,20.20
2022-10-29T16:21:28.378Z,24.67
2022-10-29T16:23:54.738Z,26.23
2022-10-29T16:26:22.351Z,27.77
2022-10-29T16:28:48.981Z,29.33
2022-10-29T16:31:23.168Z,25.10
2022-10-29T16:33:50.764Z,28.73
2022-10-29T16:36:17.552Z,29.47
2022-10-29T16:38:44.029Z,26.90
2022-10-29T16:41:14.829Z,27.20
2022-10-29T16:43:41.566Z,27.63
2022-10-29T16:46:08.204Z,23.97
2022-10-29T16:48:35.070Z,28.70
2022-10-29T16:51:01.657Z,28.07
2022-10-29T16:53:28.053Z,41.03
2022-10-29T16:55:54.414Z,35.27
2022-10-29T16:58:20.828Z,27.27
2022-10-29T17:00:47.226Z,28.43
2022-10-29T17:03:14.319Z,31.47
2022-10-29T17:05:42.178Z,30.70
2022-10-29T17:08:08.851Z,30.53
2022-10-29T17:10:35.433Z,33.37
2022-10-29T17:13:01.825Z,28.07
2022-10-29T17:15:28.166Z,30.03
2022-10-29T17:17:54.543Z,28.77
2022-10-29T17:20:20.876Z,26.23
2022-10-29T17:22:47.197Z,26.63
2022-10-29T17:25:13.591Z,31.50
2022-10-29T17:27:40.640Z,28.40
2022-10-29T17:30:07.562Z,30.00
2022-10-29T17:32:33.938Z,26.23
2022-10-29T17:35:00.340Z,32.23
2022-10-29T17:37:27.211Z,25.80
2022-10-29T17:39:53.731Z,30.57
2022-10-29T17:42:20.112Z,28.00
2022-10-29T17:44:46.432Z,31.37
2022-10-29T17:47:12.784Z,25.60
2022-10-29T17:49:39.328Z,30.00
2022-10-29T17:52:05.751Z,39.63
2022-10-29T17:54:33.975Z,28.50
2022-10-29T17:57:01.635Z,29.07
2022-10-29T17:59:28.064Z,34.70
2022-10-29T18:01:54.542Z,31.20
2022-10-29T18:04:21.082Z,27.17
2022-10-29T18:06:47.500Z,32.67
2022-10-29T18:09:17.129Z,30.57
2022-10-29T18:11:47.982Z,29.00
2022-10-29T18:14:14.355Z,33.00
2022-10-29T18:16:40.776Z,34.43
2022-10-29T18:19:07.154Z,27.77
2022-10-29T18:21:33.590Z,37.30
2022-10-29T18:23:59.976Z,37.93
2022-10-29T18:26:28.334Z,30.37
2022-10-29T18:28:55.285Z,40.30
2022-10-29T18:31:23.737Z,37.67
2022-10-29T18:33:50.152Z,29.43
2022-10-29T18:36:16.739Z,27.67
2022-10-29T18:38:43.159Z,32.30
2022-10-29T18:41:09.586Z,24.40
2022-10-29T18:43:36.006Z,33.80
2022-10-29T18:46:04.672Z,32.00
2022-10-29T18:48:31.489Z,33.07
2022-10-29T18:51:08.436Z,30.40
2022-10-29T18:53:35.565Z,34.67
2022-10-29T18:56:02.857Z,28.97
2022-10-29T18:58:29.293Z,31.73
2022-10-29T19:01:03.342Z,31.50
2022-10-29T19:03:29.849Z,32.07
2022-10-29T19:05:56.406Z,30.73
2022-10-29T19:08:22.791Z,37.10
2022-10-29T19:10:49.350Z,36.97
2022-10-29T19:13:15.731Z,31.10
2022-10-29T19:15:42.078Z,29.73
2022-10-29T19:18:08.399Z,31.03
2022-10-29T19:20:35.872Z,30.67
2022-10-29T19:23:02.593Z,32.77
2022-10-29T19:25:29.072Z,39.93
2022-10-29T19:27:55.437Z,40.87
2022-10-29T19:30:21.810Z,36.13
2022-10-29T19:32:48.271Z,35.47
2022-10-29T19:35:14.646Z,33.20
2022-10-29T19:37:41.087Z,34.07
2022-10-29T19:40:08.216Z,34.80
2022-10-29T19:42:34.561Z,31.17
2022-10-29T19:45:00.902Z,35.50
2022-10-29T19:47:27.209Z,43.00
2022-10-29T19:49:53.648Z,29.13
2022-10-29T19:52:20.057Z,31.07
2022-10-29T19:54:46.424Z,32.50
2022-10-29T19:57:12.789Z,32.47
2022-10-29T19:59:39.109Z,38.90
2022-10-29T20:02:05.581Z,34.53
2022-10-29T20:04:32.023Z,37.03
2022-10-29T20:06:58.376Z,33.37
2022-10-29T20:09:24.721Z,38.20
2022-10-29T20:11:51.035Z,32.13
2022-10-29T20:14:17.366Z,41.00
2022-10-29T20:16:43.700Z,35.43
2022-10-29T20:19:10.666Z,36.30
2022-10-29T20:21:36.990Z,40.30
2022-10-29T20:24:03.450Z,28.93
2022-10-29T20:26:31.096Z,33.27
2022-10-29T20:28:57.754Z,36.03
2022-10-29T20:31:27.809Z,36.50
2022-10-29T20:33:58.484Z,33.90
2022-10-29T20:36:25.459Z,43.63
2022-10-29T20:38:52.386Z,36.83
2022-10-29T20:41:19.219Z,40.67
2022-10-29T20:43:46.147Z,30.27
2022-10-29T20:46:13.609Z,41.63
2022-10-29T20:48:39.959Z,31.73
2022-10-29T20:51:06.431Z,40.60
2022-10-29T20:53:32.864Z,33.63
2022-10-29T20:55:59.235Z,35.23
2022-10-29T20:58:25.577Z,36.57
2022-10-29T21:00:51.974Z,33.60
2022-10-29T21:03:18.638Z,35.47
2022-10-29T21:05:45.029Z,48.13
2022-10-29T21:08:11.384Z,40.47
2022-10-29T21:10:37.905Z,35.23
2022-10-29T21:13:04.621Z,39.77
2022-10-29T21:15:31.315Z,37.87
2022-10-29T21:18:00.647Z,45.27
2022-10-29T21:20:26.983Z,41.27
2022-10-29T21:22:53.342Z,36.37
2022-10-29T21:25:19.728Z,35.00
2022-10-29T21:27:46.077Z,36.03
2022-10-29T21:30:12.826Z,37.73
2022-10-29T21:32:39.253Z,40.53
2022-10-29T21:35:05.787Z,37.50
2022-10-29T21:37:32.148Z,42.43
2022-10-29T21:40:00.286Z,34.63
2022-10-29T21:42:29.739Z,37.70
2022-10-29T21:44:56.183Z,34.17
2022-10-29T21:47:22.576Z,37.10
2022-10-29T21:49:51.850Z,31.67
2022-10-29T21:52:18.494Z,38.27
2022-10-29T21:54:44.853Z,39.10
2022-10-29T21:57:11.229Z,37.60
2022-10-29T21:59:37.579Z,35.17
2022-10-29T22:02:04.068Z,34.17
2022-10-29T22:04:30.521Z,36.70
2022-10-29T22:06:56.973Z,39.80
2022-10-29T22:09:23.386Z,38.53
2022-10-29T22:11:49.743Z,45.07
2022-10-29T22:14:16.617Z,36.13
2022-10-29T22:16:45.392Z,38.50
2022-10-29T22:19:14.729Z,41.37
2022-10-29T22:21:41.876Z,46.70
2022-10-29T22:24:09.088Z,34.07
2022-10-29T22:26:35.460Z,38.37
2022-10-29T22:29:01.861Z,39.80
2022-10-29T22:31:28.361Z,35.73
2022-10-29T22:33:54.866Z,39.93
2022-10-29T22:36:22.737Z,35.30
2022-10-29T22:38:55.980Z,40.97
2022-10-29T22:41:22.390Z,35.20
2022-10-29T22:43:48.747Z,40.73
2022-10-29T22:46:16.349Z,45.73
2022-10-29T22:48:45.789Z,38.63
2022-10-29T22:51:12.118Z,37.47
2022-10-29T22:53:38.498Z,44.90
2022-10-29T22:56:05.230Z,42.87
2022-10-29T22:58:31.766Z,45.47
2022-10-29T23:01:05.988Z,39.97
2022-10-29T23:03:32.897Z,43.17
2022-10-29T23:05:59.708Z,36.43
2022-10-29T23:08:26.284Z,46.63
2022-10-29T23:10:55.045Z,71.50
2022-10-29T23:13:21.450Z,51.13
2022-10-29T23:15:48.560Z,37.83
2022-10-29T23:18:15.015Z,36.67
2022-10-29T23:20:41.465Z,38.57
2022-10-29T23:23:07.836Z,40.60
2022-10-29T23:25:34.247Z,37.37
2022-10-29T23:28:00.653Z,43.23
2022-10-29T23:30:27.029Z,35.57
2022-10-29T23:32:53.365Z,36.07
2022-10-29T23:35:19.708Z,32.87
2022-10-29T23:37:46.061Z,31.43
2022-10-29T23:40:12.587Z,43.47
2022-10-29T23:42:38.937Z,38.57
2022-10-29T23:45:07.808Z,36.80
2022-10-29T23:47:34.350Z,34.50
2022-10-29T23:50:00.717Z,30.47
2022-10-29T23:52:27.065Z,32.67
2022-10-29T23:54:53.391Z,34.77
2022-10-29T23:57:19.724Z,41.43
2022-10-29T23:59:46.050Z,31.80
